Oakdale, CT (06370)

3:34 AM EDT on October 24, 2014 (GMT -0400)
Montville High School | Change Station
CLOSE
Current Station
Personal Weather Station
Location: Montville, CT
Elevation: 381 ft
Nearby Weather Stations

Elev 381 ft 41.46 °N, 72.16 °W | Updated 10 minutes ago

Overcast
Overcast
50.5 °F
Feels Like 50.5 °F
N
12.0
Wind Variable Wind from NE
Gusts 16.0 mph

Today
High -- | Low -- °F
--% Chance of Precip.
Yesterday
High -- | Low -- °F
Precip. -- in
7:10 AM 5:54 PM
New Moon, 0% visible
Pressure 29.66 in
Visibility 10.0 miles
Clouds Mostly Cloudy 1300 ft
Overcast 2200 ft
Dew Point 48 °F
Humidity 92%
Rainfall 0.00 in
Snow Depth Not available.
UV 0 out of 12
Pollen .10 out of 12
PM2.5 Good
Flu Activity Sporadic
SPECI KGON 240724Z AUTO 34012KT 10SM BKN013 OVC022 11/09 A2966 RMK AO2 T01060089

More Conditions Fewer Conditions

Pressure 29.66 in
Visibility 10.0 miles
Clouds Mostly Cloudy 1300 ft
Overcast 2200 ft
Dew Point 48 °F
Humidity 92%
Rainfall 0.00 in
Snow Depth Not available.
UV 0 out of 12
Pollen .10 out of 12
PM2.5 Good
Flu Activity Sporadic
SPECI KGON 240724Z AUTO 34012KT 10SM BKN013 OVC022 11/09 A2966 RMK AO2 T01060089

More Conditions Fewer Conditions

10-Day Weather Forecast

Almanac

Astronomy

Oct. 24, 2014 Rise Set
Actual Time 7:10 AM EDT 5:54 PM EDT
Civil Twilight 6:42 AM EDT 6:22 PM EDT
Nautical Twilight 6:10 AM EDT 6:54 PM EDT
Astronomical Twilight 5:38 AM EDT 7:26 PM EDT
Moon 7:47 AM EDT 6:31 PM EDT
Length of Visible Light 11h 40m
Length of Day
10h 43m
Tomorrow will be 2m 34s shorter.
New Moon, 0% of the Moon is Illuminated
Today
New Moon
Oct 30
First Quarter
Nov 6
Full
Nov 14
Last Quarter
Nov 22
New

Today's Extremes

State Highs State Lows

Community

WunderPhotos

Upload Photos

1,764,512 photos uploaded!

WunderBlogs® & News

Nearby

Air Quality

  Air Quality AQ Index Pollutant
Yesterday Good
PM2.5
Current Good
PM2.5
Friday Good
PM2.5

Snow Depth

Station Depth Elevation
No new snow has been reported.

Earthquake Activity

City Distance Mag. Time & Date
No recent earthquake activity has been reported nearby.
Minimum magnitude displayed is 2.5.

Coastal Water Temperatures

Place Temperature
New London, CT 61.0 °F
New Haven, CT 60.1 °F
Newport, RI 60.1 °F
Quonset Point, RI 59.0 °F
Conimicut Light, RI 60.1 °F
Providence, RI 59.0 °F

Nearby Weather Stations